Belmont, Canada
Current Conditions -  °F | °C
As of 3:24 AM on Saturday 25 Oct 2014 (Local Time) from CYHZ Reporting Station
Haze Haze  
Wind Chill: 50°   Ceiling: 300
Heat Index: 50°   Visibility: 5mi
Dew Point: 50°   Wind: 15mph
Humidity: 100%   Direction: 320°NW
Pressure: 29.4"   Gusts: NA
Location:  45.42°N, 63.38°W
Report Text: CYHZ 250624Z 32013KT 5SM BR OVC003 10/10 A2940 RMK SF8 SLP958 DENSITY ALT 600FT
Loading
Personal Weather Stations






























Interactive Weather Map
Tropical Storm Tracking
New forecast layout! Learn more

10-Day Weather Forecast

Advertisements
Track Severe Weather on mobile